Time;durP1;ratioP1;P1;durP2;ratioP2;P2;SDS_P1;SDS_P2;PMS_P1;PMS_P2;Temp;Humidity;BMP_temperature;BMP_pressure;BME280_temperature;BME280_humidity;BME280_pressure;Samples;Min_cycle;Max_cycle;Signal;HPM_P1;HPM_P2
2021/08/02 00:01:55;;;;;;;;;;;13.00;99.90;;;;;;5058525;28;19912;-88
2021/08/02 00:04:22;;;;;;;;;;;13.10;99.90;;;;;;5058930;28;20270;-88
2021/08/02 00:06:49;;;;;;;;;;;13.10;99.90;;;;;;5070125;28;20390;-88
2021/08/02 00:09:16;;;;;;;;;;;13.10;99.90;;;;;;5080922;28;19943;-88
2021/08/02 00:11:49;;;;;;;;;;;13.20;99.90;;;;;;5079710;28;19957;-88
2021/08/02 00:14:16;;;;;;;;;;;13.20;99.90;;;;;;5079607;28;19912;-89
2021/08/02 00:16:42;;;;;;;;;;;13.20;99.90;;;;;;5080318;28;19908;-88
2021/08/02 00:19:08;;;;;;;;;;;13.30;99.90;;;;;;5095690;28;20302;-88
2021/08/02 00:21:34;;;;;;;;;;;13.30;99.90;;;;;;5078435;28;19912;-88
2021/08/02 00:23:59;;;;;;;;;;;13.30;99.90;;;;;;5078534;28;19999;-88
2021/08/02 00:26:25;;;;;;;;;;;13.30;99.90;;;;;;5077528;28;19908;-88
2021/08/02 00:28:51;;;;;;;;;;;13.30;99.90;;;;;;5095925;28;19908;-88
2021/08/02 00:31:16;;;;;;;;;;;13.40;99.90;;;;;;5080313;28;19908;-88
2021/08/02 00:33:42;;;;;;;;;;;13.40;99.90;;;;;;5096516;28;19908;-88
2021/08/02 00:36:11;;;;;;;;;;;13.40;99.90;;;;;;5085363;28;19920;-89
2021/08/02 00:38:45;;;;;;;;;;;13.40;99.90;;;;;;5080507;28;19908;-88
2021/08/02 00:41:10;;;;;;;;;;;13.40;99.90;;;;;;5057984;28;19920;-88
2021/08/02 00:43:42;;;;;;;;;;;13.50;99.90;;;;;;5059633;28;19916;-89
2021/08/02 00:46:07;;;;;;;;;;;13.40;99.90;;;;;;5058516;28;19919;-88
2021/08/02 00:48:39;;;;;;;;;;;13.50;99.90;;;;;;5076843;28;19908;-89
2021/08/02 00:51:05;;;;;;;;;;;13.50;99.90;;;;;;5059266;28;20003;-88
2021/08/02 00:53:31;;;;;;;;;;;13.50;99.90;;;;;;5058566;28;20366;-88
2021/08/02 00:55:58;;;;;;;;;;;13.50;99.90;;;;;;5061939;28;19908;-89
2021/08/02 00:58:25;;;;;;;;;;;13.50;99.90;;;;;;5063430;28;19908;-89
2021/08/02 01:00:51;;;;;;;;;;;13.50;99.90;;;;;;5059741;28;19912;-89
2021/08/02 01:03:17;;;;;;;;;;;13.50;99.90;;;;;;5059856;28;20367;-89
2021/08/02 01:05:45;;;;;;;;;;;13.50;99.90;;;;;;5068516;28;19961;-89
2021/08/02 01:08:15;;;;;;;;;;;13.50;99.90;;;;;;5074719;28;20069;-89
2021/08/02 01:11:00;;;;;;;;;;;13.50;99.90;;;;;;5082265;28;19915;-88
2021/08/02 01:13:27;;;;;;;;;;;13.60;99.90;;;;;;5079597;28;19912;-88
2021/08/02 01:15:54;;;;;;;;;;;13.60;99.90;;;;;;5079345;28;19908;-89
2021/08/02 01:18:20;;;;;;;;;;;13.60;99.90;;;;;;5078704;28;19908;-89
2021/08/02 01:20:47;;;;;;;;;;;13.50;99.90;;;;;;5078122;28;20002;-88
2021/08/02 01:23:14;;;;;;;;;;;13.50;99.90;;;;;;5078341;28;19908;-88
2021/08/02 01:25:39;;;;;;;;;;;13.60;99.90;;;;;;5094875;28;19972;-88
2021/08/02 01:28:14;;;;;;;;;;;13.60;99.90;;;;;;5077937;28;20475;-88
2021/08/02 01:30:49;;;;;;;;;;;13.60;99.90;;;;;;5077982;28;19908;-88
2021/08/02 01:33:28;;;;;;;;;;;13.60;99.90;;;;;;5077006;28;19957;-88
2021/08/02 01:36:04;;;;;;;;;;;13.60;99.90;;;;;;5092283;28;19915;-88
2021/08/02 01:38:30;;;;;;;;;;;13.60;99.90;;;;;;5072747;28;19953;-89
2021/08/02 01:40:56;;;;;;;;;;;13.60;99.90;;;;;;5077191;28;20011;-88
2021/08/02 01:43:22;;;;;;;;;;;13.60;99.90;;;;;;5076621;28;19958;-88
2021/08/02 01:46:03;;;;;;;;;;;13.60;99.90;;;;;;5095199;28;19912;-88
2021/08/02 01:48:38;;;;;;;;;;;13.70;99.90;;;;;;5059806;28;19916;-89
2021/08/02 01:51:19;;;;;;;;;;;13.70;99.90;;;;;;5076467;28;20440;-89
2021/08/02 01:53:48;;;;;;;;;;;13.70;99.90;;;;;;5076814;28;19908;-89
2021/08/02 01:56:19;;;;;;;;;;;13.70;99.90;;;;;;5075575;28;19908;-89
2021/08/02 01:58:48;;;;;;;;;;;13.60;99.90;;;;;;5074836;28;19914;-88
2021/08/02 02:01:14;;;;;;;;;;;13.60;99.90;;;;;;5076140;28;19918;-88
2021/08/02 02:03:40;;;;;;;;;;;13.70;99.90;;;;;;5076747;28;19941;-88
2021/08/02 02:06:13;;;;;;;;;;;13.70;99.90;;;;;;5068342;28;20267;-88
2021/08/02 02:08:41;;;;;;;;;;;13.60;99.90;;;;;;5060506;28;19909;-89
2021/08/02 02:11:07;;;;;;;;;;;13.60;99.90;;;;;;5074746;28;19915;-89
2021/08/02 02:13:34;;;;;;;;;;;13.60;99.90;;;;;;5073958;28;20291;-89
2021/08/02 02:16:00;;;;;;;;;;;13.60;99.90;;;;;;5056054;28;19947;-89
2021/08/02 02:18:26;;;;;;;;;;;13.60;99.90;;;;;;5055723;28;19908;-89
2021/08/02 02:20:53;;;;;;;;;;;13.60;99.90;;;;;;5056790;28;19919;-89
2021/08/02 02:23:19;;;;;;;;;;;13.60;99.90;;;;;;5058197;28;20070;-89
2021/08/02 02:25:45;;;;;;;;;;;13.60;99.90;;;;;;5059078;28;19963;-90
2021/08/02 02:28:12;;;;;;;;;;;13.60;99.90;;;;;;5056500;28;19932;-91
2021/08/02 02:30:39;;;;;;;;;;;13.60;99.90;;;;;;5057822;28;19908;-90
2021/08/02 02:33:05;;;;;;;;;;;13.60;99.90;;;;;;5057931;28;19908;-90
2021/08/02 02:35:31;;;;;;;;;;;13.50;99.90;;;;;;5083368;28;19908;-90
2021/08/02 02:37:57;;;;;;;;;;;13.50;99.90;;;;;;5069602;28;19908;-89
2021/08/02 02:40:23;;;;;;;;;;;13.50;99.90;;;;;;5060382;28;19943;-90
2021/08/02 02:42:49;;;;;;;;;;;13.40;99.90;;;;;;5058753;28;19924;-90
2021/08/02 02:45:15;;;;;;;;;;;13.40;99.90;;;;;;5059044;28;19915;-90
2021/08/02 02:47:41;;;;;;;;;;;13.40;99.90;;;;;;5077273;28;19995;-90
2021/08/02 02:50:07;;;;;;;;;;;13.30;99.90;;;;;;5058288;28;19916;-89
2021/08/02 02:52:34;;;;;;;;;;;13.30;99.90;;;;;;5059796;28;19923;-90
2021/08/02 02:55:00;;;;;;;;;;;13.30;99.90;;;;;;5060075;28;19909;-90
2021/08/02 02:57:26;;;;;;;;;;;13.30;99.90;;;;;;5059649;28;19977;-90
2021/08/02 02:59:51;;;;;;;;;;;13.30;99.90;;;;;;5077046;28;19924;-89
2021/08/02 03:02:19;;;;;;;;;;;13.30;99.90;;;;;;5058362;28;19920;-90
2021/08/02 03:04:45;;;;;;;;;;;13.20;99.90;;;;;;5058574;28;19951;-90
2021/08/02 03:07:12;;;;;;;;;;;13.20;99.90;;;;;;5088191;28;20002;-90
2021/08/02 03:09:39;;;;;;;;;;;13.20;99.90;;;;;;5096349;28;20328;-91
2021/08/02 03:12:05;;;;;;;;;;;13.20;99.90;;;;;;5078412;28;20388;-89
2021/08/02 03:14:31;;;;;;;;;;;13.20;99.90;;;;;;5078056;28;19908;-90
2021/08/02 03:16:56;;;;;;;;;;;13.20;99.90;;;;;;5080290;28;19994;-89
2021/08/02 03:19:22;;;;;;;;;;;13.20;99.90;;;;;;5097116;28;19968;-90
2021/08/02 03:21:47;;;;;;;;;;;13.20;99.90;;;;;;5097329;28;19924;-90
2021/08/02 03:24:25;;;;;;;;;;;13.30;99.90;;;;;;5100526;28;19942;-90
2021/08/02 03:26:55;;;;;;;;;;;13.20;99.90;;;;;;5082562;28;19924;-89
2021/08/02 03:29:20;;;;;;;;;;;13.30;99.90;;;;;;5084349;28;19915;-90
2021/08/02 03:31:50;;;;;;;;;;;13.30;99.90;;;;;;5081873;28;20362;-90
2021/08/02 03:34:21;;;;;;;;;;;13.30;99.90;;;;;;5081842;28;20287;-89
2021/08/02 03:36:47;;;;;;;;;;;13.30;99.90;;;;;;5080580;28;20433;-89
2021/08/02 03:39:14;;;;;;;;;;;13.30;99.90;;;;;;5091224;28;19908;-88
2021/08/02 03:41:41;;;;;;;;;;;13.30;99.90;;;;;;5090181;28;20215;-89
2021/08/02 03:44:09;;;;;;;;;;;13.20;99.90;;;;;;5090929;28;19935;-88
2021/08/02 03:46:35;;;;;;;;;;;13.20;99.90;;;;;;5082571;28;19908;-90
2021/08/02 03:49:00;;;;;;;;;;;13.30;99.90;;;;;;5099626;28;19915;-89
2021/08/02 03:51:32;;;;;;;;;;;13.30;99.90;;;;;;5097329;28;20050;-89
2021/08/02 03:53:57;;;;;;;;;;;13.20;99.90;;;;;;5080669;28;20100;-90
2021/08/02 03:56:23;;;;;;;;;;;13.20;99.90;;;;;;5081373;28;19951;-90
2021/08/02 03:58:48;;;;;;;;;;;13.20;99.90;;;;;;5081070;28;19915;-89
2021/08/02 04:01:14;;;;;;;;;;;13.20;99.90;;;;;;5080233;28;19912;-90
2021/08/02 04:03:41;;;;;;;;;;;13.20;99.90;;;;;;5080186;28;19911;-90
2021/08/02 04:06:07;;;;;;;;;;;13.20;99.90;;;;;;5075065;28;19909;-90
2021/08/02 04:08:33;;;;;;;;;;;13.20;99.90;;;;;;5078374;28;19912;-89
2021/08/02 04:10:58;;;;;;;;;;;13.20;99.90;;;;;;5082905;28;19915;-90
2021/08/02 04:13:24;;;;;;;;;;;13.10;99.90;;;;;;5098990;28;19940;-89
2021/08/02 04:15:49;;;;;;;;;;;13.10;99.90;;;;;;5099116;28;19908;-90
2021/08/02 04:18:15;;;;;;;;;;;13.10;99.90;;;;;;5096593;28;20282;-89
2021/08/02 04:20:41;;;;;;;;;;;13.00;99.90;;;;;;5096661;28;19920;-90
2021/08/02 04:23:07;;;;;;;;;;;13.00;99.90;;;;;;5096912;28;19934;-89
2021/08/02 04:25:32;;;;;;;;;;;13.00;99.90;;;;;;5097395;28;20002;-89
2021/08/02 04:27:58;;;;;;;;;;;13.00;99.90;;;;;;5097335;28;20015;-89
2021/08/02 04:30:23;;;;;;;;;;;13.00;99.90;;;;;;5097436;28;20382;-90
2021/08/02 04:32:49;;;;;;;;;;;13.10;99.90;;;;;;5096608;28;19912;-90
2021/08/02 04:35:14;;;;;;;;;;;13.10;99.90;;;;;;5075644;28;19908;-90
2021/08/02 04:37:40;;;;;;;;;;;13.10;99.90;;;;;;5095915;28;19908;-90
2021/08/02 04:40:06;;;;;;;;;;;13.20;99.90;;;;;;5097112;28;20389;-89
2021/08/02 04:42:38;;;;;;;;;;;13.20;99.90;;;;;;5078907;28;19947;-90
2021/08/02 04:45:04;;;;;;;;;;;13.30;99.90;;;;;;5079402;28;19916;-89
2021/08/02 04:47:29;;;;;;;;;;;13.30;99.90;;;;;;5078788;28;19915;-90
2021/08/02 04:49:55;;;;;;;;;;;13.30;99.90;;;;;;5096049;28;19909;-90
2021/08/02 04:52:22;;;;;;;;;;;13.30;99.90;;;;;;5094297;28;20294;-89
2021/08/02 04:54:47;;;;;;;;;;;13.40;99.90;;;;;;5094617;28;19947;-89
2021/08/02 04:57:13;;;;;;;;;;;13.40;99.90;;;;;;5094546;28;20405;-90
2021/08/02 04:59:39;;;;;;;;;;;13.40;99.90;;;;;;5094601;28;19963;-90
2021/08/02 05:02:08;;;;;;;;;;;13.50;99.90;;;;;;5094654;28;19916;-89
2021/08/02 05:04:34;;;;;;;;;;;13.40;99.90;;;;;;5078018;28;19909;-90
2021/08/02 05:06:59;;;;;;;;;;;13.50;99.90;;;;;;5069393;28;19923;-89
2021/08/02 05:09:25;;;;;;;;;;;13.50;99.90;;;;;;5097152;28;19909;-89
2021/08/02 05:11:53;;;;;;;;;;;13.50;99.90;;;;;;5097471;28;19908;-90
2021/08/02 05:14:19;;;;;;;;;;;13.50;99.90;;;;;;5080242;28;20002;-89
2021/08/02 05:16:45;;;;;;;;;;;13.50;99.90;;;;;;5098957;28;19954;-90
2021/08/02 05:19:11;;;;;;;;;;;13.60;99.90;;;;;;5096849;28;19965;-89
2021/08/02 05:21:36;;;;;;;;;;;13.60;99.90;;;;;;5080649;28;19912;-89
2021/08/02 05:24:02;;;;;;;;;;;13.60;99.90;;;;;;5083171;28;19955;-89
2021/08/02 05:26:27;;;;;;;;;;;13.70;99.90;;;;;;5099631;28;19923;-89
2021/08/02 05:28:53;;;;;;;;;;;13.70;99.90;;;;;;5099845;28;19915;-89
2021/08/02 05:31:18;;;;;;;;;;;13.70;99.90;;;;;;5099893;28;19915;-88
2021/08/02 05:33:44;;;;;;;;;;;13.70;99.90;;;;;;5098904;28;20286;-90
2021/08/02 05:36:09;;;;;;;;;;;13.70;99.90;;;;;;5096576;28;19931;-90
2021/08/02 05:38:35;;;;;;;;;;;13.70;99.90;;;;;;5083479;28;20383;-89
2021/08/02 05:41:00;;;;;;;;;;;13.70;99.90;;;;;;5082611;28;20381;-90
2021/08/02 05:43:26;;;;;;;;;;;13.70;99.90;;;;;;5097772;28;19916;-90
2021/08/02 05:45:52;;;;;;;;;;;13.70;99.90;;;;;;5098548;28;19920;-89
2021/08/02 05:48:18;;;;;;;;;;;13.80;99.90;;;;;;5083324;28;19911;-90
2021/08/02 05:50:43;;;;;;;;;;;13.80;99.90;;;;;;5083289;28;19960;-89
2021/08/02 05:53:09;;;;;;;;;;;13.80;99.90;;;;;;5101286;28;19908;-90
2021/08/02 05:55:34;;;;;;;;;;;13.90;99.90;;;;;;5101980;28;19912;-89
2021/08/02 05:58:00;;;;;;;;;;;13.80;99.90;;;;;;5099347;28;19912;-90
2021/08/02 06:00:25;;;;;;;;;;;13.90;99.90;;;;;;5097301;28;19923;-89
2021/08/02 06:02:51;;;;;;;;;;;13.90;99.90;;;;;;5096587;28;20370;-87
2021/08/02 06:05:17;;;;;;;;;;;13.90;99.90;;;;;;5094041;28;20472;-90
2021/08/02 06:07:43;;;;;;;;;;;14.00;99.90;;;;;;5088134;28;20003;-88
2021/08/02 06:10:12;;;;;;;;;;;14.10;99.90;;;;;;5095628;28;19912;-88
2021/08/02 06:12:38;;;;;;;;;;;14.10;99.90;;;;;;5071012;28;19931;-87
2021/08/02 06:15:04;;;;;;;;;;;14.20;99.90;;;;;;5086288;28;20371;-87
2021/08/02 06:17:29;;;;;;;;;;;14.30;99.90;;;;;;5058231;28;19916;-88
2021/08/02 06:19:55;;;;;;;;;;;14.40;99.90;;;;;;5057581;28;19952;-87
2021/08/02 06:22:20;;;;;;;;;;;14.40;99.90;;;;;;5059491;28;19947;-87
2021/08/02 06:24:46;;;;;;;;;;;14.50;99.90;;;;;;5058328;28;19938;-87
2021/08/02 06:27:12;;;;;;;;;;;14.70;99.90;;;;;;5060340;28;19908;-87
2021/08/02 06:29:38;;;;;;;;;;;14.80;99.90;;;;;;5059218;28;19913;-88
2021/08/02 06:32:04;;;;;;;;;;;14.90;99.90;;;;;;5077325;28;19987;-87
2021/08/02 06:34:30;;;;;;;;;;;15.10;99.90;;;;;;5059879;28;20295;-87
2021/08/02 06:36:56;;;;;;;;;;;15.30;99.90;;;;;;5057912;28;19962;-87
2021/08/02 06:39:21;;;;;;;;;;;15.40;99.90;;;;;;5058405;28;19908;-87
2021/08/02 06:41:47;;;;;;;;;;;15.60;99.90;;;;;;5058726;28;19913;-86
2021/08/02 06:44:12;;;;;;;;;;;15.80;99.90;;;;;;5090705;28;19919;-88
2021/08/02 06:46:38;;;;;;;;;;;15.90;99.90;;;;;;5096298;28;20290;-87
2021/08/02 06:49:03;;;;;;;;;;;16.00;99.90;;;;;;5099482;28;20375;-88
2021/08/02 06:51:29;;;;;;;;;;;16.10;99.90;;;;;;5098070;28;19908;-88
2021/08/02 06:53:56;;;;;;;;;;;16.20;99.90;;;;;;5101303;28;20332;-89
2021/08/02 06:56:21;;;;;;;;;;;16.30;99.90;;;;;;5087932;28;20112;-89
2021/08/02 06:58:47;;;;;;;;;;;16.40;99.90;;;;;;5092219;28;19959;-90
2021/08/02 07:01:12;;;;;;;;;;;16.50;99.90;;;;;;5110566;28;19912;-90
2021/08/02 07:03:38;;;;;;;;;;;16.60;99.90;;;;;;5104023;28;19993;-86
2021/08/02 07:06:03;;;;;;;;;;;16.70;99.90;;;;;;5088033;28;19915;-88
2021/08/02 07:08:29;;;;;;;;;;;16.80;99.90;;;;;;5112646;28;19998;-88
2021/08/02 07:10:54;;;;;;;;;;;16.80;99.90;;;;;;5109594;28;20010;-87
2021/08/02 07:13:20;;;;;;;;;;;16.80;99.90;;;;;;5103697;28;19909;-87
2021/08/02 07:15:45;;;;;;;;;;;16.80;99.90;;;;;;5088496;28;19967;-88
2021/08/02 07:18:11;;;;;;;;;;;16.80;99.90;;;;;;5101689;28;19908;-87
2021/08/02 07:20:36;;;;;;;;;;;16.90;99.90;;;;;;5101639;28;19909;-87
2021/08/02 07:23:02;;;;;;;;;;;16.90;99.90;;;;;;5100470;28;20469;-87
2021/08/02 07:25:27;;;;;;;;;;;17.10;99.90;;;;;;5100283;28;19912;-89
2021/08/02 07:27:53;;;;;;;;;;;17.30;99.90;;;;;;5100647;28;19915;-88
2021/08/02 07:30:18;;;;;;;;;;;17.50;99.90;;;;;;5102191;28;19908;-87
2021/08/02 07:32:44;;;;;;;;;;;17.60;99.90;;;;;;5102261;28;19950;-88
2021/08/02 07:35:09;;;;;;;;;;;17.80;99.90;;;;;;5101198;28;20401;-88
2021/08/02 07:37:38;;;;;;;;;;;18.10;99.90;;;;;;5084252;28;19915;-87
2021/08/02 07:40:04;;;;;;;;;;;18.70;99.90;;;;;;5082512;28;19916;-88
2021/08/02 07:42:30;;;;;;;;;;;19.10;99.90;;;;;;5076912;28;19916;-88
2021/08/02 07:44:55;;;;;;;;;;;19.50;99.90;;;;;;5080554;28;19930;-87
2021/08/02 07:47:21;;;;;;;;;;;19.50;99.90;;;;;;5100222;28;19912;-87
2021/08/02 07:49:46;;;;;;;;;;;19.70;99.90;;;;;;5099015;28;20382;-87
2021/08/02 07:52:12;;;;;;;;;;;19.80;99.90;;;;;;5078340;28;20519;-89
2021/08/02 07:54:37;;;;;;;;;;;20.00;99.90;;;;;;5096726;28;19962;-87
2021/08/02 07:57:03;;;;;;;;;;;20.10;99.90;;;;;;5098268;28;19957;-87
2021/08/02 07:59:29;;;;;;;;;;;20.40;99.90;;;;;;5091425;28;20008;-86
2021/08/02 08:01:54;;;;;;;;;;;20.60;99.90;;;;;;5066638;28;19919;-86
2021/08/02 08:04:20;;;;;;;;;;;21.00;99.90;;;;;;5086984;28;19908;-87
2021/08/02 08:06:46;;;;;;;;;;;21.90;99.90;;;;;;5092859;28;20321;-87
2021/08/02 08:09:12;;;;;;;;;;;22.90;99.90;;;;;;5086355;28;20328;-87
2021/08/02 08:11:37;;;;;;;;;;;23.60;99.90;;;;;;5073451;28;20452;-87
2021/08/02 08:14:03;;;;;;;;;;;24.40;99.90;;;;;;5077172;28;19947;-86
2021/08/02 08:16:28;;;;;;;;;;;24.70;99.90;;;;;;5092393;28;19931;-89
2021/08/02 08:18:56;;;;;;;;;;;25.00;99.90;;;;;;5076454;28;19908;-88
2021/08/02 08:21:21;;;;;;;;;;;24.90;99.90;;;;;;5057184;28;19959;-89
2021/08/02 08:23:47;;;;;;;;;;;24.70;99.90;;;;;;5057324;28;19938;-88
2021/08/02 08:26:12;;;;;;;;;;;24.50;99.90;;;;;;5057750;28;20383;-88
2021/08/02 08:28:38;;;;;;;;;;;23.90;99.90;;;;;;5057654;28;19913;-87
2021/08/02 08:31:03;;;;;;;;;;;23.80;99.90;;;;;;5059685;28;20287;-88
2021/08/02 08:33:29;;;;;;;;;;;23.70;99.90;;;;;;5057514;28;19962;-87
2021/08/02 08:35:55;;;;;;;;;;;23.60;99.90;;;;;;5075138;28;19912;-88
2021/08/02 08:38:20;;;;;;;;;;;23.20;99.90;;;;;;5075070;28;19912;-88
2021/08/02 08:40:46;;;;;;;;;;;22.70;99.90;;;;;;5057066;28;20335;-89
2021/08/02 08:43:15;;;;;;;;;;;22.10;99.90;;;;;;5065357;28;19920;-89
2021/08/02 08:45:40;;;;;;;;;;;21.80;99.90;;;;;;5073989;28;19915;-86
2021/08/02 08:48:06;;;;;;;;;;;21.90;99.90;;;;;;5093887;28;19909;-87
2021/08/02 08:50:32;;;;;;;;;;;22.20;99.90;;;;;;5077200;28;19953;-87
2021/08/02 08:52:57;;;;;;;;;;;22.40;99.90;;;;;;5093948;28;19912;-87
2021/08/02 08:55:23;;;;;;;;;;;22.80;99.90;;;;;;5093608;28;19961;-86
2021/08/02 08:57:49;;;;;;;;;;;23.50;99.90;;;;;;5094445;28;20290;-86
2021/08/02 09:00:22;;;;;;;;;;;23.50;99.90;;;;;;5093421;28;19908;-87
2021/08/02 09:02:47;;;;;;;;;;;23.60;99.90;;;;;;5076639;28;20413;-88
2021/08/02 09:05:13;;;;;;;;;;;23.80;99.90;;;;;;5093359;28;19908;-88
2021/08/02 09:07:40;;;;;;;;;;;23.70;99.90;;;;;;5076214;28;19908;-88
2021/08/02 09:10:07;;;;;;;;;;;23.90;99.90;;;;;;5077433;28;20306;-88
2021/08/02 09:12:32;;;;;;;;;;;24.30;99.90;;;;;;5117144;28;19907;-86
2021/08/02 09:15:05;;;;;;;;;;;24.70;99.90;;;;;;5109265;28;19892;-87
2021/08/02 09:17:35;;;;;;;;;;;24.80;99.90;;;;;;5118059;28;20368;-87
2021/08/02 09:20:02;;;;;;;;;;;24.80;99.90;;;;;;5107703;28;20433;-87
2021/08/02 09:22:32;;;;;;;;;;;24.80;99.90;;;;;;5090340;28;19912;-87
2021/08/02 09:25:05;;;;;;;;;;;24.70;99.90;;;;;;5060797;28;19908;-88
2021/08/02 09:27:33;;;;;;;;;;;24.40;99.90;;;;;;5065279;28;19908;-88
2021/08/02 09:29:58;;;;;;;;;;;24.10;99.90;;;;;;5059991;28;19912;-88
2021/08/02 09:32:24;;;;;;;;;;;24.00;99.90;;;;;;5064411;28;20014;-88
2021/08/02 09:34:49;;;;;;;;;;;23.90;99.90;;;;;;5064068;28;20007;-86
2021/08/02 09:37:24;;;;;;;;;;;24.00;99.90;;;;;;5083723;28;19912;-87
2021/08/02 09:39:50;;;;;;;;;;;24.30;99.90;;;;;;5065726;28;19915;-88
2021/08/02 09:42:22;;;;;;;;;;;24.50;99.90;;;;;;5055336;28;19916;-87
2021/08/02 09:44:57;;;;;;;;;;;24.50;99.90;;;;;;5073936;28;19919;-85
2021/08/02 09:47:26;;;;;;;;;;;24.70;99.90;;;;;;5055708;28;19916;-87
2021/08/02 09:49:52;;;;;;;;;;;24.70;99.90;;;;;;5055548;28;19909;-87
2021/08/02 09:52:21;;;;;;;;;;;25.10;99.90;;;;;;5060697;28;19963;-86
2021/08/02 09:54:46;;;;;;;;;;;25.50;99.40;;;;;;5075563;28;19939;-87
2021/08/02 09:57:12;;;;;;;;;;;25.80;99.90;;;;;;5082512;28;19909;-87
2021/08/02 09:59:42;;;;;;;;;;;26.40;99.90;;;;;;5075149;28;19912;-88
2021/08/02 10:02:08;;;;;;;;;;;26.90;99.90;;;;;;5060498;28;19917;-86
2021/08/02 10:04:34;;;;;;;;;;;27.10;98.10;;;;;;5059065;28;20323;-86
2021/08/02 10:07:00;;;;;;;;;;;26.80;95.50;;;;;;5074197;28;20298;-87
2021/08/02 10:09:28;;;;;;;;;;;26.00;96.20;;;;;;5083620;28;19908;-87
2021/08/02 10:11:55;;;;;;;;;;;25.50;97.80;;;;;;5076394;28;19917;-86
2021/08/02 10:14:26;;;;;;;;;;;24.80;98.70;;;;;;5066623;28;20437;-87
2021/08/02 10:16:52;;;;;;;;;;;23.80;98.70;;;;;;5076644;28;19990;-89
2021/08/02 10:19:19;;;;;;;;;;;23.00;99.90;;;;;;5076142;28;19951;-90
2021/08/02 10:21:47;;;;;;;;;;;22.40;99.90;;;;;;5094895;28;19919;-91
2021/08/02 10:24:14;;;;;;;;;;;22.00;99.90;;;;;;5080396;28;19909;-90
2021/08/02 10:26:41;;;;;;;;;;;21.60;99.90;;;;;;5076718;28;19942;-90
2021/08/02 10:29:07;;;;;;;;;;;21.10;99.90;;;;;;5077392;28;20007;-91
2021/08/02 10:31:43;;;;;;;;;;;21.00;99.90;;;;;;5076815;28;19916;-92
2021/08/02 10:34:13;;;;;;;;;;;21.10;99.90;;;;;;5077832;28;19942;-93
2021/08/02 10:36:38;;;;;;;;;;;21.30;99.90;;;;;;5083644;28;19909;-93
2021/08/02 10:39:04;;;;;;;;;;;21.40;99.90;;;;;;5116695;28;19985;-92
2021/08/02 10:41:31;;;;;;;;;;;21.30;99.90;;;;;;5118073;28;19926;-93
2021/08/02 10:43:58;;;;;;;;;;;21.40;99.90;;;;;;5088581;28;19924;-91
2021/08/02 10:46:26;;;;;;;;;;;21.80;99.90;;;;;;5079788;28;19901;-90
2021/08/02 10:48:53;;;;;;;;;;;22.50;99.90;;;;;;5070632;28;19908;-92
2021/08/02 10:51:23;;;;;;;;;;;22.70;99.90;;;;;;5063636;28;19920;-91
2021/08/02 10:54:01;;;;;;;;;;;22.70;99.90;;;;;;5057197;28;19913;-90
2021/08/02 10:56:29;;;;;;;;;;;22.40;99.90;;;;;;5069733;28;19908;-90
2021/08/02 10:58:59;;;;;;;;;;;22.00;99.90;;;;;;5075600;28;19915;-89
2021/08/02 11:01:26;;;;;;;;;;;21.10;99.90;;;;;;5070864;28;19912;-90
2021/08/02 11:03:56;;;;;;;;;;;20.50;99.90;;;;;;5059043;28;20287;-92
2021/08/02 11:06:21;;;;;;;;;;;20.20;99.90;;;;;;5066577;28;19909;-89
2021/08/02 11:08:47;;;;;;;;;;;19.90;99.90;;;;;;5056987;28;20350;-90
2021/08/02 11:11:20;;;;;;;;;;;19.80;99.90;;;;;;5057095;28;19909;-91
2021/08/02 11:13:46;;;;;;;;;;;19.70;99.90;;;;;;5075072;28;20405;-91
2021/08/02 11:16:11;;;;;;;;;;;19.50;99.90;;;;;;5055921;28;19908;-90
2021/08/02 11:18:41;;;;;;;;;;;19.40;99.90;;;;;;5075154;28;19908;-90
2021/08/02 11:21:06;;;;;;;;;;;19.30;99.90;;;;;;5076249;28;19920;-91
2021/08/02 11:23:33;;;;;;;;;;;19.40;99.90;;;;;;5087913;28;19913;-90
2021/08/02 11:26:05;;;;;;;;;;;19.40;99.90;;;;;;5071809;28;19979;-91
2021/08/02 11:28:44;;;;;;;;;;;19.90;99.90;;;;;;5082263;28;19909;-92
2021/08/02 11:31:11;;;;;;;;;;;20.60;99.90;;;;;;5089579;28;20421;-93
2021/08/02 11:33:43;;;;;;;;;;;21.70;99.90;;;;;;5077588;28;20336;-93
2021/08/02 11:36:19;;;;;;;;;;;22.40;99.90;;;;;;5077069;28;19912;-92
2021/08/02 11:38:45;;;;;;;;;;;22.50;99.90;;;;;;5077093;28;19908;-92
2021/08/02 11:41:21;;;;;;;;;;;22.30;99.90;;;;;;5060081;28;19942;-92
2021/08/02 11:43:47;;;;;;;;;;;22.00;99.90;;;;;;5058649;28;19917;-92
2021/08/02 11:46:13;;;;;;;;;;;21.80;99.90;;;;;;5075637;28;20336;-90
2021/08/02 11:48:44;;;;;;;;;;;21.70;99.90;;;;;;5080107;28;19912;-91
2021/08/02 11:51:13;;;;;;;;;;;21.60;99.90;;;;;;5076758;28;19943;-91
2021/08/02 11:53:39;;;;;;;;;;;21.60;99.90;;;;;;5070750;28;19918;-90
2021/08/02 11:56:04;;;;;;;;;;;21.90;99.90;;;;;;5095896;28;19990;-91
2021/08/02 11:58:40;;;;;;;;;;;22.20;99.90;;;;;;5074473;28;19908;-88
2021/08/02 12:01:06;;;;;;;;;;;23.10;99.90;;;;;;5060213;28;19999;-88
2021/08/02 12:03:32;;;;;;;;;;;23.90;99.90;;;;;;5076972;28;19959;-88
2021/08/02 12:06:16;;;;;;;;;;;24.70;99.90;;;;;;5076797;28;19908;-89
2021/08/02 12:08:51;;;;;;;;;;;25.10;99.90;;;;;;5066922;28;19955;-87
2021/08/02 12:11:17;;;;;;;;;;;24.70;99.90;;;;;;5097471;28;19908;-89
2021/08/02 12:13:47;;;;;;;;;;;24.20;99.90;;;;;;5091570;28;19958;-88
2021/08/02 12:16:24;;;;;;;;;;;23.90;99.90;;;;;;5066928;28;20378;-89
2021/08/02 12:18:50;;;;;;;;;;;23.60;99.90;;;;;;5061965;28;19908;-88
2021/08/02 12:21:22;;;;;;;;;;;23.30;99.90;;;;;;5087141;28;19919;-88
2021/08/02 12:23:47;;;;;;;;;;;23.30;99.90;;;;;;5082729;28;19908;-86
2021/08/02 12:26:15;;;;;;;;;;;23.30;99.90;;;;;;5073897;28;19995;-86
2021/08/02 12:28:41;;;;;;;;;;;23.30;99.90;;;;;;5060367;28;19912;-86
2021/08/02 12:31:11;;;;;;;;;;;23.50;99.90;;;;;;5070839;28;19909;-88
2021/08/02 12:33:36;;;;;;;;;;;23.80;99.90;;;;;;5061189;28;19991;-87
2021/08/02 12:36:02;;;;;;;;;;;23.70;99.90;;;;;;5083142;28;19952;-86
2021/08/02 12:38:27;;;;;;;;;;;23.60;99.90;;;;;;5072004;28;19954;-87
2021/08/02 12:40:59;;;;;;;;;;;23.50;99.90;;;;;;5091243;28;19909;-86
2021/08/02 12:43:25;;;;;;;;;;;23.40;99.90;;;;;;5073681;28;19916;-88
2021/08/02 12:45:50;;;;;;;;;;;23.40;99.90;;;;;;5056913;28;19915;-86
2021/08/02 12:48:16;;;;;;;;;;;23.90;99.90;;;;;;5084088;28;20365;-87
2021/08/02 12:50:41;;;;;;;;;;;24.10;99.90;;;;;;5075194;28;19967;-87
2021/08/02 12:53:07;;;;;;;;;;;24.00;99.90;;;;;;5092113;28;19934;-86
2021/08/02 12:55:32;;;;;;;;;;;24.10;99.90;;;;;;5069232;28;20393;-87
2021/08/02 12:57:58;;;;;;;;;;;23.80;98.80;;;;;;5091474;28;19913;-88
2021/08/02 13:00:23;;;;;;;;;;;23.20;99.90;;;;;;5086442;28;19908;-89
2021/08/02 13:02:49;;;;;;;;;;;22.80;99.90;;;;;;5095793;28;20451;-87
2021/08/02 13:05:14;;;;;;;;;;;22.50;99.90;;;;;;5090053;28;20318;-86
2021/08/02 13:07:40;;;;;;;;;;;22.40;99.90;;;;;;5075376;28;19915;-87
2021/08/02 13:10:05;;;;;;;;;;;22.20;99.90;;;;;;5093616;28;19908;-87
2021/08/02 13:12:31;;;;;;;;;;;22.00;99.90;;;;;;5089371;28;19946;-87
2021/08/02 13:14:57;;;;;;;;;;;22.10;99.90;;;;;;5077168;28;19908;-88
2021/08/02 13:17:22;;;;;;;;;;;21.90;99.90;;;;;;5093704;28;19931;-88
2021/08/02 13:19:48;;;;;;;;;;;21.90;99.90;;;;;;5066644;28;19912;-89
2021/08/02 13:22:16;;;;;;;;;;;21.90;99.90;;;;;;5061090;28;20010;-85
2021/08/02 13:27:25;;;;;;;;;;;22.40;99.60;;;;;;5074196;28;19938;-87
2021/08/02 13:29:51;;;;;;;;;;;22.70;99.90;;;;;;5084037;28;20454;-88
2021/08/02 13:32:16;;;;;;;;;;;23.00;99.90;;;;;;5092947;28;19913;-86
2021/08/02 13:34:42;;;;;;;;;;;23.10;99.60;;;;;;5089859;28;19908;-87
2021/08/02 13:37:08;;;;;;;;;;;23.60;99.80;;;;;;5068417;28;19908;-86
2021/08/02 13:39:33;;;;;;;;;;;24.30;99.90;;;;;;5075932;28;20256;-85
2021/08/02 13:42:00;;;;;;;;;;;24.40;97.70;;;;;;5082991;28;19928;-86
2021/08/02 13:44:26;;;;;;;;;;;24.50;95.70;;;;;;5074002;28;19922;-86
2021/08/02 13:46:52;;;;;;;;;;;24.70;96.50;;;;;;5081542;28;19991;-86
2021/08/02 13:49:18;;;;;;;;;;;24.90;98.20;;;;;;5069250;28;19908;-87
2021/08/02 13:51:44;;;;;;;;;;;25.20;97.10;;;;;;5086763;28;19991;-87
2021/08/02 13:54:09;;;;;;;;;;;25.40;97.50;;;;;;5085479;28;20382;-87
2021/08/02 13:56:35;;;;;;;;;;;25.50;96.80;;;;;;5092544;28;20011;-87
2021/08/02 13:59:00;;;;;;;;;;;25.70;98.00;;;;;;5082111;28;19909;-86
2021/08/02 14:01:26;;;;;;;;;;;26.00;96.50;;;;;;5089452;28;19980;-86
2021/08/02 14:03:51;;;;;;;;;;;25.60;96.70;;;;;;5095374;28;19916;-89
2021/08/02 14:06:17;;;;;;;;;;;25.20;97.00;;;;;;5068415;28;19915;-88
2021/08/02 14:08:43;;;;;;;;;;;24.70;96.60;;;;;;5077833;28;20317;-87
2021/08/02 14:11:16;;;;;;;;;;;24.80;97.80;;;;;;5074470;28;19913;-87
2021/08/02 14:13:46;;;;;;;;;;;25.50;98.90;;;;;;5075706;28;19915;-88
2021/08/02 14:16:16;;;;;;;;;;;26.10;97.40;;;;;;5089176;28;19915;-86
2021/08/02 14:18:48;;;;;;;;;;;26.60;96.70;;;;;;5070194;28;19916;-88